createdAt,value
2023-02-28T00:00:48.508Z,95.25
2023-02-28T00:03:18.122Z,94.87
2023-02-28T00:05:44.847Z,94.95
2023-02-28T00:08:17.549Z,96.06
2023-02-28T00:10:44.729Z,96.72
2023-02-28T00:13:14.410Z,97.04
2023-02-28T00:15:41.189Z,97.11
2023-02-28T00:18:07.902Z,97.66
2023-02-28T00:20:38.303Z,98.00
2023-02-28T00:23:08.563Z,98.22
2023-02-28T00:25:39.029Z,98.37
2023-02-28T00:28:05.621Z,98.49
2023-02-28T00:30:35.481Z,98.54
2023-02-28T00:33:05.520Z,98.43
2023-02-28T00:35:34.918Z,98.27
2023-02-28T00:38:04.812Z,97.66
2023-02-28T00:40:38.682Z,97.72
2023-02-28T00:43:07.066Z,98.03
2023-02-28T00:45:33.762Z,96.89
2023-02-28T00:48:00.903Z,97.45
2023-02-28T00:50:38.969Z,97.15
2023-02-28T00:53:05.617Z,97.45
2023-02-28T00:55:36.088Z,97.79
2023-02-28T00:58:08.171Z,97.77
2023-02-28T01:00:37.501Z,97.14
2023-02-28T01:03:06.669Z,97.61
2023-02-28T01:05:36.605Z,97.41
2023-02-28T01:08:05.867Z,97.20
2023-02-28T01:10:36.176Z,97.24
2023-02-28T01:13:08.545Z,98.30
2023-02-28T01:15:37.727Z,98.67
2023-02-28T01:18:05.427Z,98.62
2023-02-28T01:20:36.817Z,98.97
2023-02-28T01:23:03.833Z,98.73
2023-02-28T01:25:38.754Z,98.63
2023-02-28T01:28:06.872Z,98.87
2023-02-28T01:30:34.625Z,98.25
2023-02-28T01:33:03.570Z,97.89
2023-02-28T01:35:36.579Z,97.40
2023-02-28T01:38:20.441Z,97.16
2023-02-28T01:40:53.492Z,97.71
2023-02-28T01:43:26.556Z,96.21
2023-02-28T01:45:56.976Z,96.38
2023-02-28T01:48:36.670Z,96.69
2023-02-28T01:51:10.365Z,98.60
2023-02-28T01:53:47.537Z,98.85
2023-02-28T01:56:23.218Z,98.83
2023-02-28T01:59:09.727Z,99.99
2023-02-28T02:01:39.152Z,100.00
2023-02-28T02:04:06.748Z,100.00
2023-02-28T02:06:44.017Z,100.00
2023-02-28T02:09:11.171Z,100.00
2023-02-28T02:11:38.864Z,100.00
2023-02-28T02:14:18.013Z,100.00
2023-02-28T02:17:03.423Z,99.48
2023-02-28T02:19:42.939Z,98.97
2023-02-28T02:22:32.292Z,98.27
2023-02-28T02:25:13.322Z,97.79
2023-02-28T02:28:14.380Z,97.17
2023-02-28T02:30:49.983Z,96.93
2023-02-28T02:33:44.641Z,97.19
2023-02-28T02:36:18.983Z,97.16
2023-02-28T02:38:55.836Z,98.41
2023-02-28T02:41:42.279Z,98.46
2023-02-28T02:44:15.315Z,98.94
2023-02-28T02:46:44.799Z,99.06
2023-02-28T02:49:28.508Z,99.79
2023-02-28T02:51:56.128Z,100.00
2023-02-28T02:54:30.992Z,100.00
2023-02-28T02:57:05.746Z,100.00
2023-02-28T02:59:33.347Z,100.00
2023-02-28T03:02:05.325Z,100.00
2023-02-28T03:04:37.955Z,100.00
2023-02-28T03:07:05.032Z,100.00
2023-02-28T03:09:40.748Z,100.00
2023-02-28T03:12:11.306Z,100.00
2023-02-28T03:15:07.461Z,100.00
2023-02-28T03:17:52.472Z,100.00
2023-02-28T03:20:37.429Z,100.00
2023-02-28T03:23:10.065Z,100.00
2023-02-28T03:26:03.798Z,100.00
2023-02-28T03:28:45.432Z,100.00
2023-02-28T03:31:34.058Z,100.00
2023-02-28T03:34:08.975Z,100.00
2023-02-28T03:36:49.406Z,100.00
2023-02-28T03:39:26.681Z,100.00
2023-02-28T03:42:08.271Z,100.00
2023-02-28T03:44:41.168Z,100.00
2023-02-28T03:47:30.438Z,100.00
2023-02-28T03:50:18.276Z,100.00
2023-02-28T03:53:15.761Z,100.00
2023-02-28T03:55:46.333Z,100.00
2023-02-28T03:58:21.905Z,100.00
2023-02-28T04:00:55.768Z,100.00
2023-02-28T04:03:35.320Z,100.00
2023-02-28T04:06:05.935Z,100.00
2023-02-28T04:08:33.002Z,100.00
2023-02-28T04:11:15.760Z,100.00
2023-02-28T04:13:49.533Z,100.00
2023-02-28T04:16:33.897Z,100.00
2023-02-28T04:19:06.081Z,100.00
2023-02-28T04:21:41.817Z,100.00
2023-02-28T04:24:15.665Z,100.00
2023-02-28T04:26:45.574Z,100.00
2023-02-28T04:29:14.533Z,100.00
2023-02-28T04:31:41.303Z,100.00
2023-02-28T04:34:08.066Z,100.00
2023-02-28T04:36:37.947Z,100.00
2023-02-28T04:39:07.504Z,100.00
2023-02-28T04:41:36.719Z,100.00
2023-02-28T04:44:04.004Z,100.00
2023-02-28T04:46:31.675Z,100.00
2023-02-28T04:48:59.154Z,100.00
2023-02-28T04:51:25.922Z,100.00
2023-02-28T04:53:54.735Z,100.00
2023-02-28T04:56:22.066Z,100.00
2023-02-28T04:58:49.220Z,100.00
2023-02-28T05:01:28.998Z,100.00
2023-02-28T05:03:57.665Z,100.00
2023-02-28T05:06:25.636Z,100.00
2023-02-28T05:08:52.779Z,100.00
2023-02-28T05:11:29.424Z,100.00
2023-02-28T05:14:01.747Z,100.00
2023-02-28T05:16:30.738Z,100.00
2023-02-28T05:18:59.118Z,100.00
2023-02-28T05:21:28.793Z,100.00
2023-02-28T05:24:02.864Z,100.00
2023-02-28T05:26:30.546Z,100.00
2023-02-28T05:28:57.458Z,100.00
2023-02-28T05:31:24.564Z,100.00
2023-02-28T05:33:51.263Z,100.00
2023-02-28T05:36:18.311Z,100.00
2023-02-28T05:38:53.581Z,100.00
2023-02-28T05:41:21.003Z,100.00
2023-02-28T05:43:55.946Z,100.00
2023-02-28T05:46:24.807Z,100.00
2023-02-28T05:48:52.141Z,100.00
2023-02-28T05:51:22.304Z,100.00
2023-02-28T05:53:50.213Z,100.00
2023-02-28T05:56:16.895Z,100.00
2023-02-28T05:58:44.768Z,100.00
2023-02-28T06:01:38.101Z,100.00
2023-02-28T06:04:14.328Z,100.00
2023-02-28T06:06:47.207Z,100.00
2023-02-28T06:09:14.358Z,100.00
2023-02-28T06:11:41.100Z,100.00
2023-02-28T06:14:07.987Z,100.00
2023-02-28T06:16:35.584Z,100.00
2023-02-28T06:19:03.940Z,100.00
2023-02-28T06:21:31.431Z,100.00
2023-02-28T06:23:59.378Z,100.00
2023-02-28T06:26:26.431Z,100.00
2023-02-28T06:28:53.079Z,100.00
2023-02-28T06:31:20.042Z,100.00
2023-02-28T06:33:47.072Z,100.00
2023-02-28T06:36:15.344Z,100.00
2023-02-28T06:38:44.787Z,100.00
2023-02-28T06:41:11.785Z,100.00
2023-02-28T06:43:41.156Z,100.00
2023-02-28T06:46:09.514Z,100.00
2023-02-28T06:48:36.601Z,100.00
2023-02-28T06:51:15.163Z,100.00
2023-02-28T06:53:42.146Z,100.00
2023-02-28T06:56:14.181Z,100.00
2023-02-28T06:58:41.274Z,100.00
2023-02-28T07:01:08.889Z,100.00
2023-02-28T07:03:36.831Z,100.00
2023-02-28T07:06:05.079Z,100.00
2023-02-28T07:08:32.679Z,100.00
2023-02-28T07:10:59.504Z,100.00
2023-02-28T07:13:29.060Z,100.00
2023-02-28T07:16:01.066Z,100.00
2023-02-28T07:18:28.391Z,100.00
2023-02-28T07:20:58.138Z,100.00
2023-02-28T07:23:24.950Z,100.00
2023-02-28T07:25:52.081Z,99.26
2023-02-28T07:28:18.756Z,97.51
2023-02-28T07:30:45.428Z,96.21
2023-02-28T07:33:13.106Z,95.53
2023-02-28T07:35:45.841Z,94.13
2023-02-28T07:38:14.760Z,93.61
2023-02-28T07:40:41.631Z,91.02
2023-02-28T07:43:08.299Z,89.87
2023-02-28T07:45:37.909Z,89.00
2023-02-28T07:48:07.053Z,88.22
2023-02-28T07:50:33.716Z,87.87
2023-02-28T07:53:00.535Z,87.78
2023-02-28T07:55:27.895Z,87.34
2023-02-28T07:57:55.686Z,87.40
2023-02-28T08:00:23.021Z,86.41
2023-02-28T08:02:52.851Z,86.39
2023-02-28T08:05:21.884Z,85.50
2023-02-28T08:07:50.631Z,85.20
2023-02-28T08:10:17.319Z,85.12
2023-02-28T08:12:45.113Z,84.38
2023-02-28T08:15:11.955Z,84.35
2023-02-28T08:17:38.729Z,84.03
2023-02-28T08:20:05.886Z,83.64
2023-02-28T08:22:32.595Z,83.31
2023-02-28T08:24:59.280Z,82.25
2023-02-28T08:27:25.989Z,82.65
2023-02-28T08:29:52.665Z,83.17
2023-02-28T08:32:29.354Z,84.11
2023-02-28T08:34:56.686Z,84.18
2023-02-28T08:37:23.331Z,84.10
2023-02-28T08:39:50.008Z,84.53
2023-02-28T08:42:16.691Z,84.71
2023-02-28T08:44:43.439Z,84.96
2023-02-28T08:47:10.101Z,84.71
2023-02-28T08:49:38.535Z,84.34
2023-02-28T08:52:05.214Z,84.80
2023-02-28T08:54:34.358Z,84.29
2023-02-28T08:57:00.953Z,83.15
2023-02-28T08:59:27.631Z,82.82
2023-02-28T09:01:54.269Z,82.49
2023-02-28T09:04:23.390Z,81.99
2023-02-28T09:06:51.478Z,82.16
2023-02-28T09:09:18.129Z,82.54
2023-02-28T09:11:44.824Z,81.34
2023-02-28T09:14:11.647Z,80.45
2023-02-28T09:16:38.549Z,80.44
2023-02-28T09:19:05.378Z,79.84
2023-02-28T09:21:32.179Z,80.16
2023-02-28T09:23:58.997Z,79.17
2023-02-28T09:26:32.413Z,78.60
2023-02-28T09:29:05.931Z,79.51
2023-02-28T09:31:32.749Z,78.78
2023-02-28T09:34:02.542Z,78.16
2023-02-28T09:36:41.888Z,78.17
2023-02-28T09:39:11.559Z,77.22
2023-02-28T09:41:51.773Z,76.96
2023-02-28T09:44:38.885Z,75.92
2023-02-28T09:47:19.817Z,76.86
2023-02-28T09:49:48.922Z,76.65
2023-02-28T09:52:20.463Z,76.05
2023-02-28T09:54:47.360Z,76.15
2023-02-28T09:57:36.532Z,76.28
2023-02-28T10:00:11.361Z,77.16
2023-02-28T10:03:20.914Z,76.71
2023-02-28T10:05:59.791Z,77.17
2023-02-28T10:08:35.052Z,75.76
2023-02-28T10:11:05.567Z,75.72
2023-02-28T10:13:59.118Z,74.94
2023-02-28T10:16:31.261Z,74.21
2023-02-28T10:19:04.974Z,73.65
2023-02-28T10:21:36.951Z,73.00
2023-02-28T10:26:39.710Z,70.88
2023-02-28T10:29:08.413Z,70.95
2023-02-28T10:31:35.141Z,71.17
2023-02-28T10:34:02.511Z,70.05
2023-02-28T10:36:30.241Z,69.64
2023-02-28T10:38:57.131Z,69.27
2023-02-28T10:41:29.873Z,68.54
2023-02-28T10:44:21.886Z,67.29
2023-02-28T10:46:49.582Z,67.09
2023-02-28T10:49:25.021Z,66.14
2023-02-28T10:51:55.225Z,66.13
2023-02-28T10:54:36.243Z,66.38
2023-02-28T10:57:20.749Z,64.72
2023-02-28T10:59:52.095Z,64.54
2023-02-28T11:02:38.703Z,64.25
2023-02-28T11:05:35.470Z,64.44
2023-02-28T11:08:13.985Z,64.07
2023-02-28T11:10:41.109Z,64.53
2023-02-28T11:13:07.791Z,63.57
2023-02-28T11:15:35.412Z,63.15
2023-02-28T11:18:03.189Z,62.86
2023-02-28T11:20:32.000Z,62.46
2023-02-28T11:23:00.222Z,62.56
2023-02-28T11:25:33.260Z,63.25
2023-02-28T11:28:05.575Z,62.35
2023-02-28T11:30:39.828Z,61.36
2023-02-28T11:33:46.137Z,62.74
2023-02-28T11:36:21.415Z,62.29
2023-02-28T11:38:50.632Z,62.84
2023-02-28T11:41:29.275Z,63.12
2023-02-28T11:44:08.145Z,64.23
2023-02-28T11:46:45.258Z,64.57
2023-02-28T11:49:36.955Z,64.32
2023-02-28T11:52:37.962Z,64.59
2023-02-28T11:55:10.657Z,64.45
2023-02-28T11:57:50.615Z,64.43
2023-02-28T12:00:36.807Z,64.67
2023-02-28T12:03:29.303Z,64.74
2023-02-28T12:06:06.747Z,64.26
2023-02-28T12:08:54.041Z,64.34
2023-02-28T12:11:34.025Z,63.90
2023-02-28T12:14:22.311Z,64.44
2023-02-28T12:16:56.047Z,63.77
2023-02-28T12:19:40.297Z,64.46
2023-02-28T12:22:26.266Z,63.35
2023-02-28T12:25:08.274Z,63.06
2023-02-28T12:27:38.782Z,62.84
2023-02-28T12:30:19.442Z,63.21
2023-02-28T12:32:50.520Z,62.98
2023-02-28T12:35:27.903Z,62.86
2023-02-28T12:38:06.791Z,63.45
2023-02-28T12:40:47.154Z,63.69
2023-02-28T12:43:16.614Z,63.95
2023-02-28T12:45:50.129Z,63.88
2023-02-28T12:48:25.118Z,63.85
2023-02-28T12:50:53.273Z,64.53
2023-02-28T12:53:40.013Z,64.41
2023-02-28T12:56:13.729Z,63.47
2023-02-28T12:58:47.204Z,64.28
2023-02-28T13:02:00.477Z,63.40
2023-02-28T13:04:48.731Z,64.02
2023-02-28T13:07:50.795Z,63.75
2023-02-28T13:10:19.829Z,63.21
2023-02-28T13:12:51.906Z,62.74
2023-02-28T13:15:32.304Z,61.72
2023-02-28T13:18:00.218Z,62.47
2023-02-28T13:20:36.982Z,62.69
2023-02-28T13:23:15.370Z,62.34
2023-02-28T13:25:42.928Z,62.23
2023-02-28T13:28:17.904Z,62.36
2023-02-28T13:30:53.926Z,62.40
2023-02-28T13:33:34.574Z,61.89
2023-02-28T13:36:15.368Z,61.47
2023-02-28T13:38:48.838Z,61.11
2023-02-28T13:41:32.833Z,60.62
2023-02-28T13:44:03.120Z,60.73
2023-02-28T13:46:33.488Z,60.03
2023-02-28T13:49:32.663Z,59.80
2023-02-28T13:52:05.875Z,59.93
2023-02-28T13:55:15.664Z,58.42
2023-02-28T13:57:57.529Z,58.24
2023-02-28T14:00:34.637Z,57.56
2023-02-28T14:03:22.837Z,57.34
2023-02-28T14:06:20.199Z,56.87
2023-02-28T14:09:10.526Z,56.10
2023-02-28T14:11:41.960Z,56.29
2023-02-28T14:14:10.581Z,55.82
2023-02-28T14:17:03.721Z,55.11
2023-02-28T14:19:32.436Z,54.42
2023-02-28T14:22:42.343Z,54.26
2023-02-28T14:25:35.444Z,54.17
2023-02-28T14:28:11.137Z,54.03
2023-02-28T14:30:57.926Z,54.47
2023-02-28T14:33:41.039Z,54.73
2023-02-28T14:36:29.141Z,54.40
2023-02-28T14:39:01.226Z,54.74
2023-02-28T14:41:37.991Z,54.82
2023-02-28T14:44:19.278Z,55.38
2023-02-28T14:46:48.227Z,56.02
2023-02-28T14:49:38.761Z,56.55
2023-02-28T14:52:35.767Z,56.41
2023-02-28T14:55:15.309Z,57.89
2023-02-28T14:57:51.699Z,56.95
2023-02-28T15:00:27.175Z,56.86
2023-02-28T15:02:54.913Z,57.03
2023-02-28T15:05:35.660Z,57.49
2023-02-28T15:08:27.096Z,57.87
2023-02-28T15:11:05.502Z,58.27
2023-02-28T15:13:41.669Z,58.73
2023-02-28T15:16:41.366Z,59.63
2023-02-28T15:19:17.343Z,59.44
2023-02-28T15:21:46.462Z,59.12
2023-02-28T15:24:29.308Z,58.93
2023-02-28T15:26:58.576Z,59.52
2023-02-28T15:29:28.539Z,59.32
2023-02-28T15:32:04.150Z,59.51
2023-02-28T15:34:44.316Z,59.84
2023-02-28T15:37:36.461Z,60.48
2023-02-28T15:40:17.280Z,60.61
2023-02-28T15:43:04.727Z,59.39
2023-02-28T15:45:42.269Z,58.69
2023-02-28T15:48:27.853Z,58.65
2023-02-28T15:50:56.884Z,59.21
2023-02-28T15:53:52.819Z,59.56
2023-02-28T15:56:21.445Z,60.16
2023-02-28T15:58:48.505Z,60.19
2023-02-28T16:01:25.704Z,60.26
2023-02-28T16:03:54.868Z,61.82
2023-02-28T16:06:33.111Z,62.44
2023-02-28T16:09:02.944Z,62.47
2023-02-28T16:11:30.522Z,62.90
2023-02-28T16:14:00.865Z,63.07
2023-02-28T16:16:32.135Z,63.23
2023-02-28T16:19:02.606Z,63.90
2023-02-28T16:21:33.044Z,64.94
2023-02-28T16:24:05.091Z,64.70
2023-02-28T16:26:36.164Z,65.47
2023-02-28T16:29:06.936Z,65.96
2023-02-28T16:31:43.623Z,66.51
2023-02-28T16:34:12.954Z,66.94
2023-02-28T16:36:44.194Z,67.47
2023-02-28T16:39:11.844Z,67.93
2023-02-28T16:41:38.485Z,68.54
2023-02-28T16:44:12.867Z,68.66
2023-02-28T16:46:39.527Z,69.60
2023-02-28T16:49:12.058Z,70.47
2023-02-28T16:51:41.464Z,70.92
2023-02-28T16:54:09.439Z,71.17
2023-02-28T16:56:42.282Z,71.47
2023-02-28T16:59:11.514Z,72.36
2023-02-28T17:01:38.620Z,72.88
2023-02-28T17:04:12.089Z,73.97
2023-02-28T17:06:39.171Z,74.86
2023-02-28T17:09:16.966Z,74.96
2023-02-28T17:11:45.640Z,75.67
2023-02-28T17:14:12.228Z,76.19
2023-02-28T17:16:45.980Z,76.50
2023-02-28T17:19:16.952Z,76.22
2023-02-28T17:21:44.004Z,76.08
2023-02-28T17:24:16.532Z,76.70
2023-02-28T17:26:45.994Z,77.28
2023-02-28T17:29:19.449Z,77.68
2023-02-28T17:31:47.992Z,78.37
2023-02-28T17:34:19.405Z,78.58
2023-02-28T17:36:53.234Z,79.10
2023-02-28T17:39:25.218Z,79.40
2023-02-28T17:41:53.138Z,80.76
2023-02-28T17:44:20.894Z,81.08
2023-02-28T17:46:52.257Z,80.93
2023-02-28T17:49:44.279Z,82.10
2023-02-28T17:52:12.300Z,81.67
2023-02-28T17:54:39.430Z,82.28
2023-02-28T17:57:13.572Z,83.53
2023-02-28T17:59:41.844Z,84.69
2023-02-28T18:02:10.587Z,84.60
2023-02-28T18:04:37.287Z,83.94
2023-02-28T18:07:07.012Z,84.67
2023-02-28T18:09:33.790Z,85.26
2023-02-28T18:12:03.396Z,85.66
2023-02-28T18:14:30.083Z,86.07
2023-02-28T18:17:02.878Z,86.52
2023-02-28T18:19:29.586Z,87.16
2023-02-28T18:22:01.667Z,87.47
2023-02-28T18:24:31.491Z,88.15
2023-02-28T18:26:58.085Z,88.57
2023-02-28T18:29:48.368Z,89.23
2023-02-28T18:32:17.308Z,89.35
2023-02-28T18:34:45.206Z,89.76
2023-02-28T18:37:12.104Z,90.49
2023-02-28T18:39:38.950Z,90.69
2023-02-28T18:42:08.979Z,90.07
2023-02-28T18:44:37.633Z,90.61
2023-02-28T18:47:04.362Z,90.27
2023-02-28T18:49:34.146Z,90.10
2023-02-28T18:52:00.768Z,91.07
2023-02-28T18:54:37.189Z,90.91
2023-02-28T18:57:04.789Z,90.96
2023-02-28T18:59:33.648Z,92.02
2023-02-28T19:02:06.155Z,93.17
2023-02-28T19:04:37.727Z,93.30
2023-02-28T19:07:06.032Z,93.62
2023-02-28T19:09:35.131Z,94.02
2023-02-28T19:12:09.572Z,94.82
2023-02-28T19:14:36.314Z,95.29
2023-02-28T19:17:02.961Z,95.14
2023-02-28T19:19:29.764Z,95.69
2023-02-28T19:22:05.785Z,96.78
2023-02-28T19:24:32.663Z,96.04
2023-02-28T19:27:01.626Z,96.96
2023-02-28T19:29:28.489Z,97.18
2023-02-28T19:31:56.456Z,97.38
2023-02-28T19:34:31.699Z,98.65
2023-02-28T19:37:01.025Z,100.00
2023-02-28T19:39:41.044Z,100.00
2023-02-28T19:42:13.217Z,100.00
2023-02-28T19:44:43.052Z,100.00
2023-02-28T19:47:11.097Z,100.00
2023-02-28T19:49:40.768Z,100.00
2023-02-28T19:52:17.889Z,100.00
2023-02-28T19:54:44.687Z,100.00
2023-02-28T19:57:11.544Z,100.00
2023-02-28T19:59:40.198Z,100.00
2023-02-28T20:02:13.663Z,100.00
2023-02-28T20:04:41.003Z,100.00
2023-02-28T20:07:08.038Z,100.00
2023-02-28T20:09:37.080Z,100.00
2023-02-28T20:12:17.882Z,100.00
2023-02-28T20:14:59.665Z,100.00
2023-02-28T20:17:26.499Z,100.00
2023-02-28T20:20:02.491Z,100.00
2023-02-28T20:22:29.250Z,100.00
2023-02-28T20:24:59.363Z,100.00
2023-02-28T20:27:26.729Z,100.00
2023-02-28T20:29:53.931Z,100.00
2023-02-28T20:32:24.812Z,100.00
2023-02-28T20:34:54.865Z,100.00
2023-02-28T20:37:21.946Z,100.00
2023-02-28T20:39:54.274Z,100.00
2023-02-28T20:42:24.615Z,100.00
2023-02-28T20:44:53.874Z,100.00
2023-02-28T20:47:23.013Z,100.00
2023-02-28T20:49:50.317Z,100.00
2023-02-28T20:52:19.710Z,100.00
2023-02-28T20:54:46.673Z,100.00
2023-02-28T20:57:13.549Z,100.00
2023-02-28T20:59:41.275Z,100.00
2023-02-28T21:02:10.057Z,100.00
2023-02-28T21:04:37.899Z,100.00
2023-02-28T21:07:07.139Z,100.00
2023-02-28T21:09:39.697Z,100.00
2023-02-28T21:12:10.884Z,100.00
2023-02-28T21:14:58.658Z,100.00
2023-02-28T21:17:28.201Z,100.00
2023-02-28T21:19:57.990Z,100.00
2023-02-28T21:22:25.107Z,100.00
2023-02-28T21:24:54.145Z,100.00
2023-02-28T21:27:24.041Z,100.00
2023-02-28T21:29:51.950Z,100.00
2023-02-28T21:32:21.267Z,100.00
2023-02-28T21:34:50.792Z,100.00
2023-02-28T21:37:24.081Z,100.00
2023-02-28T21:39:53.319Z,100.00
2023-02-28T21:42:24.032Z,100.00
2023-02-28T21:44:58.823Z,100.00
2023-02-28T21:47:25.861Z,100.00
2023-02-28T21:49:53.502Z,100.00
2023-02-28T21:52:22.019Z,100.00
2023-02-28T21:54:51.337Z,100.00
2023-02-28T21:57:26.663Z,100.00
2023-02-28T21:59:53.839Z,100.00
2023-02-28T22:02:23.255Z,100.00
2023-02-28T22:04:50.737Z,100.00
2023-02-28T22:07:20.815Z,100.00
2023-02-28T22:09:48.031Z,100.00
2023-02-28T22:12:16.984Z,100.00
2023-02-28T22:14:46.867Z,100.00
2023-02-28T22:17:16.277Z,100.00
2023-02-28T22:19:43.145Z,100.00
2023-02-28T22:22:09.817Z,100.00
2023-02-28T22:24:39.176Z,100.00
2023-02-28T22:27:06.776Z,100.00
2023-02-28T22:29:35.774Z,100.00
2023-02-28T22:32:14.219Z,100.00
2023-02-28T22:34:41.473Z,100.00
2023-02-28T22:37:11.663Z,100.00
2023-02-28T22:39:40.556Z,100.00
2023-02-28T22:42:07.189Z,100.00
2023-02-28T22:44:37.035Z,100.00
2023-02-28T22:47:03.743Z,100.00
2023-02-28T22:49:35.760Z,100.00
2023-02-28T22:52:05.632Z,100.00
2023-02-28T22:54:35.945Z,100.00
2023-02-28T22:57:07.974Z,100.00
2023-02-28T22:59:41.655Z,100.00
2023-02-28T23:02:11.138Z,100.00
2023-02-28T23:04:41.267Z,100.00
2023-02-28T23:07:07.974Z,100.00
2023-02-28T23:09:35.714Z,100.00
2023-02-28T23:12:04.608Z,100.00
2023-02-28T23:14:34.026Z,100.00
2023-02-28T23:17:00.726Z,100.00
2023-02-28T23:19:30.136Z,100.00
2023-02-28T23:22:02.992Z,100.00
2023-02-28T23:24:33.723Z,100.00
2023-02-28T23:27:05.084Z,100.00
2023-02-28T23:29:31.970Z,100.00
2023-02-28T23:32:05.698Z,100.00
2023-02-28T23:34:36.510Z,100.00
2023-02-28T23:37:06.749Z,100.00
2023-02-28T23:39:35.697Z,100.00
2023-02-28T23:42:04.846Z,100.00
2023-02-28T23:44:40.762Z,100.00
2023-02-28T23:47:11.949Z,100.00
2023-02-28T23:49:43.797Z,100.00
2023-02-28T23:52:12.560Z,100.00
2023-02-28T23:54:40.302Z,100.00
2023-02-28T23:57:13.596Z,100.00
2023-02-28T23:59:44.762Z,100.00
